sensor_id;sensor_type;location;lat;lon;timestamp;P1;durP1;ratioP1;P2;durP2;ratioP2
61096;SDS011;46977;50.936;6.908;2023-08-01T00:17:26;1.20;;;0.40;;
61096;SDS011;46977;50.936;6.908;2023-08-01T00:24:35;3.00;;;0.85;;
61096;SDS011;46977;50.936;6.908;2023-08-01T00:28:21;3.40;;;0.63;;
61096;SDS011;46977;50.936;6.908;2023-08-01T00:31:34;3.60;;;0.40;;
61096;SDS011;46977;50.936;6.908;2023-08-01T00:34:56;11.15;;;1.00;;
61096;SDS011;46977;50.936;6.908;2023-08-01T00:38:11;2.10;;;0.57;;
61096;SDS011;46977;50.936;6.908;2023-08-01T00:45:51;3.13;;;0.50;;
61096;SDS011;46977;50.936;6.908;2023-08-01T00:49:42;3.70;;;0.55;;
61096;SDS011;46977;50.936;6.908;2023-08-01T00:53:18;2.83;;;0.82;;
61096;SDS011;46977;50.936;6.908;2023-08-01T00:57:04;0.55;;;0.40;;
61096;SDS011;46977;50.936;6.908;2023-08-01T01:00:36;2.40;;;0.38;;
61096;SDS011;46977;50.936;6.908;2023-08-01T01:04:00;1.17;;;0.45;;
61096;SDS011;46977;50.936;6.908;2023-08-01T01:07:20;0.80;;;0.30;;
61096;SDS011;46977;50.936;6.908;2023-08-01T01:14:16;1.05;;;0.30;;
61096;SDS011;46977;50.936;6.908;2023-08-01T01:17:31;1.85;;;0.30;;
61096;SDS011;46977;50.936;6.908;2023-08-01T01:20:40;2.65;;;0.30;;
61096;SDS011;46977;50.936;6.908;2023-08-01T01:24:02;1.48;;;0.30;;
61096;SDS011;46977;50.936;6.908;2023-08-01T01:27:12;1.17;;;0.22;;
61096;SDS011;46977;50.936;6.908;2023-08-01T01:30:20;1.02;;;0.20;;
61096;SDS011;46977;50.936;6.908;2023-08-01T01:33:24;1.38;;;0.20;;
61096;SDS011;46977;50.936;6.908;2023-08-01T01:36:38;1.20;;;0.30;;
61096;SDS011;46977;50.936;6.908;2023-08-01T01:39:44;1.58;;;0.22;;
61096;SDS011;46977;50.936;6.908;2023-08-01T01:42:56;1.83;;;0.32;;
61096;SDS011;46977;50.936;6.908;2023-08-01T01:46:24;0.55;;;0.10;;
61096;SDS011;46977;50.936;6.908;2023-08-01T01:54:08;1.23;;;0.20;;
61096;SDS011;46977;50.936;6.908;2023-08-01T01:58:11;1.45;;;0.20;;
61096;SDS011;46977;50.936;6.908;2023-08-01T02:01:38;0.55;;;0.10;;
61096;SDS011;46977;50.936;6.908;2023-08-01T02:05:34;0.98;;;0.10;;
61096;SDS011;46977;50.936;6.908;2023-08-01T02:23:36;0.70;;;0.40;;
61096;SDS011;46977;50.936;6.908;2023-08-01T02:27:12;0.73;;;0.25;;
61096;SDS011;46977;50.936;6.908;2023-08-01T02:30:47;0.47;;;0.20;;
61096;SDS011;46977;50.936;6.908;2023-08-01T02:34:43;0.40;;;0.20;;
61096;SDS011;46977;50.936;6.908;2023-08-01T02:38:54;1.05;;;0.30;;
61096;SDS011;46977;50.936;6.908;2023-08-01T02:52:38;2.38;;;0.20;;
61096;SDS011;46977;50.936;6.908;2023-08-01T03:00:32;2.00;;;0.25;;
61096;SDS011;46977;50.936;6.908;2023-08-01T03:03:38;1.42;;;0.40;;
61096;SDS011;46977;50.936;6.908;2023-08-01T03:06:53;1.25;;;0.40;;
61096;SDS011;46977;50.936;6.908;2023-08-01T03:15:18;1.08;;;0.40;;
61096;SDS011;46977;50.936;6.908;2023-08-01T03:19:44;1.00;;;0.40;;
61096;SDS011;46977;50.936;6.908;2023-08-01T03:24:01;1.02;;;0.60;;
61096;SDS011;46977;50.936;6.908;2023-08-01T03:37:40;1.40;;;0.70;;
61096;SDS011;46977;50.936;6.908;2023-08-01T03:42:05;2.22;;;0.80;;
61096;SDS011;46977;50.936;6.908;2023-08-01T04:12:16;5.35;;;2.83;;
61096;SDS011;46977;50.936;6.908;2023-08-01T04:21:00;5.20;;;3.10;;
61096;SDS011;46977;50.936;6.908;2023-08-01T04:24:34;8.05;;;3.75;;
61096;SDS011;46977;50.936;6.908;2023-08-01T04:27:49;8.23;;;3.35;;
61096;SDS011;46977;50.936;6.908;2023-08-01T04:31:58;7.55;;;2.78;;
61096;SDS011;46977;50.936;6.908;2023-08-01T04:35:07;7.63;;;3.88;;
61096;SDS011;46977;50.936;6.908;2023-08-01T04:38:10;8.93;;;4.03;;
61096;SDS011;46977;50.936;6.908;2023-08-01T04:41:15;10.32;;;3.35;;
61096;SDS011;46977;50.936;6.908;2023-08-01T04:44:19;5.72;;;3.33;;
61096;SDS011;46977;50.936;6.908;2023-08-01T04:47:32;3.55;;;2.83;;
61096;SDS011;46977;50.936;6.908;2023-08-01T04:51:09;6.85;;;3.35;;
61096;SDS011;46977;50.936;6.908;2023-08-01T04:54:18;7.03;;;3.28;;
61096;SDS011;46977;50.936;6.908;2023-08-01T04:57:31;6.40;;;3.10;;
61096;SDS011;46977;50.936;6.908;2023-08-01T05:00:45;7.70;;;3.75;;
61096;SDS011;46977;50.936;6.908;2023-08-01T05:03:55;9.75;;;3.95;;
61096;SDS011;46977;50.936;6.908;2023-08-01T05:07:01;7.38;;;3.47;;
61096;SDS011;46977;50.936;6.908;2023-08-01T05:10:09;8.50;;;3.90;;
61096;SDS011;46977;50.936;6.908;2023-08-01T05:13:18;13.63;;;4.45;;
61096;SDS011;46977;50.936;6.908;2023-08-01T05:16:22;7.32;;;3.30;;
61096;SDS011;46977;50.936;6.908;2023-08-01T05:19:25;8.95;;;3.38;;
61096;SDS011;46977;50.936;6.908;2023-08-01T05:22:30;11.57;;;4.30;;
61096;SDS011;46977;50.936;6.908;2023-08-01T05:25:33;12.32;;;4.38;;
61096;SDS011;46977;50.936;6.908;2023-08-01T05:28:45;4.15;;;2.75;;
61096;SDS011;46977;50.936;6.908;2023-08-01T05:31:52;6.43;;;3.60;;
61096;SDS011;46977;50.936;6.908;2023-08-01T05:34:58;6.32;;;3.50;;
61096;SDS011;46977;50.936;6.908;2023-08-01T05:38:01;10.32;;;3.33;;
61096;SDS011;46977;50.936;6.908;2023-08-01T05:41:06;6.95;;;3.33;;
61096;SDS011;46977;50.936;6.908;2023-08-01T05:44:09;4.47;;;2.22;;
61096;SDS011;46977;50.936;6.908;2023-08-01T05:47:12;6.57;;;2.80;;
61096;SDS011;46977;50.936;6.908;2023-08-01T05:50:16;7.57;;;2.88;;
61096;SDS011;46977;50.936;6.908;2023-08-01T05:53:21;5.28;;;3.10;;
61096;SDS011;46977;50.936;6.908;2023-08-01T05:56:34;3.95;;;2.60;;
61096;SDS011;46977;50.936;6.908;2023-08-01T05:59:37;4.55;;;2.60;;
61096;SDS011;46977;50.936;6.908;2023-08-01T06:02:41;6.97;;;2.90;;
61096;SDS011;46977;50.936;6.908;2023-08-01T06:05:43;5.32;;;2.55;;
61096;SDS011;46977;50.936;6.908;2023-08-01T06:08:47;5.30;;;2.60;;
61096;SDS011;46977;50.936;6.908;2023-08-01T06:11:49;5.53;;;2.65;;
61096;SDS011;46977;50.936;6.908;2023-08-01T06:14:53;7.20;;;2.80;;
61096;SDS011;46977;50.936;6.908;2023-08-01T06:18:02;7.13;;;2.55;;
61096;SDS011;46977;50.936;6.908;2023-08-01T06:21:05;5.78;;;2.72;;
61096;SDS011;46977;50.936;6.908;2023-08-01T06:24:08;5.88;;;2.20;;
61096;SDS011;46977;50.936;6.908;2023-08-01T06:27:10;6.57;;;2.83;;
61096;SDS011;46977;50.936;6.908;2023-08-01T06:30:13;7.13;;;2.50;;
61096;SDS011;46977;50.936;6.908;2023-08-01T06:33:17;7.35;;;2.53;;
61096;SDS011;46977;50.936;6.908;2023-08-01T06:36:19;8.40;;;3.05;;
61096;SDS011;46977;50.936;6.908;2023-08-01T06:39:22;4.68;;;2.35;;
61096;SDS011;46977;50.936;6.908;2023-08-01T06:42:24;7.68;;;2.67;;
61096;SDS011;46977;50.936;6.908;2023-08-01T06:45:28;6.40;;;2.78;;
61096;SDS011;46977;50.936;6.908;2023-08-01T06:48:32;9.65;;;3.42;;
61096;SDS011;46977;50.936;6.908;2023-08-01T06:51:37;10.43;;;3.20;;
61096;SDS011;46977;50.936;6.908;2023-08-01T06:54:40;8.02;;;3.03;;
61096;SDS011;46977;50.936;6.908;2023-08-01T06:57:42;7.82;;;2.90;;
61096;SDS011;46977;50.936;6.908;2023-08-01T07:00:44;12.13;;;3.30;;
61096;SDS011;46977;50.936;6.908;2023-08-01T07:03:50;8.82;;;3.13;;
61096;SDS011;46977;50.936;6.908;2023-08-01T07:06:55;7.20;;;3.60;;
61096;SDS011;46977;50.936;6.908;2023-08-01T07:09:58;10.57;;;4.25;;
61096;SDS011;46977;50.936;6.908;2023-08-01T07:13:00;8.52;;;3.78;;
61096;SDS011;46977;50.936;6.908;2023-08-01T07:16:05;5.13;;;2.70;;
61096;SDS011;46977;50.936;6.908;2023-08-01T07:19:09;6.20;;;3.22;;
61096;SDS011;46977;50.936;6.908;2023-08-01T07:22:11;10.80;;;3.85;;
61096;SDS011;46977;50.936;6.908;2023-08-01T07:25:14;10.45;;;3.88;;
61096;SDS011;46977;50.936;6.908;2023-08-01T07:28:17;8.93;;;3.15;;
61096;SDS011;46977;50.936;6.908;2023-08-01T07:31:20;8.63;;;3.70;;
61096;SDS011;46977;50.936;6.908;2023-08-01T07:34:26;8.82;;;3.13;;
61096;SDS011;46977;50.936;6.908;2023-08-01T07:37:32;9.57;;;4.18;;
61096;SDS011;46977;50.936;6.908;2023-08-01T07:40:36;8.30;;;3.08;;
61096;SDS011;46977;50.936;6.908;2023-08-01T07:43:38;7.20;;;3.33;;
61096;SDS011;46977;50.936;6.908;2023-08-01T07:46:41;5.78;;;3.17;;
61096;SDS011;46977;50.936;6.908;2023-08-01T07:49:45;10.77;;;3.85;;
61096;SDS011;46977;50.936;6.908;2023-08-01T07:52:48;8.38;;;3.70;;
61096;SDS011;46977;50.936;6.908;2023-08-01T07:55:51;7.88;;;3.13;;
61096;SDS011;46977;50.936;6.908;2023-08-01T07:58:54;7.95;;;2.90;;
61096;SDS011;46977;50.936;6.908;2023-08-01T08:01:57;6.95;;;2.95;;
61096;SDS011;46977;50.936;6.908;2023-08-01T08:05:04;6.38;;;2.92;;
61096;SDS011;46977;50.936;6.908;2023-08-01T08:08:09;6.80;;;2.72;;
61096;SDS011;46977;50.936;6.908;2023-08-01T08:11:12;10.93;;;3.50;;
61096;SDS011;46977;50.936;6.908;2023-08-01T08:14:14;7.40;;;3.58;;
61096;SDS011;46977;50.936;6.908;2023-08-01T08:17:25;7.30;;;2.72;;
61096;SDS011;46977;50.936;6.908;2023-08-01T08:20:29;6.68;;;3.08;;
61096;SDS011;46977;50.936;6.908;2023-08-01T08:23:32;8.85;;;3.67;;
61096;SDS011;46977;50.936;6.908;2023-08-01T08:26:36;8.07;;;3.75;;
61096;SDS011;46977;50.936;6.908;2023-08-01T08:29:41;8.88;;;4.97;;
61096;SDS011;46977;50.936;6.908;2023-08-01T08:32:43;9.30;;;4.53;;
61096;SDS011;46977;50.936;6.908;2023-08-01T08:35:47;10.95;;;4.03;;
61096;SDS011;46977;50.936;6.908;2023-08-01T08:38:50;9.90;;;4.07;;
61096;SDS011;46977;50.936;6.908;2023-08-01T08:41:52;10.45;;;3.53;;
61096;SDS011;46977;50.936;6.908;2023-08-01T08:44:55;7.97;;;3.92;;
61096;SDS011;46977;50.936;6.908;2023-08-01T08:47:59;10.13;;;3.75;;
61096;SDS011;46977;50.936;6.908;2023-08-01T08:51:04;11.50;;;4.78;;
61096;SDS011;46977;50.936;6.908;2023-08-01T08:54:07;13.52;;;4.50;;
61096;SDS011;46977;50.936;6.908;2023-08-01T08:57:10;8.93;;;4.10;;
61096;SDS011;46977;50.936;6.908;2023-08-01T09:00:12;12.07;;;3.85;;
61096;SDS011;46977;50.936;6.908;2023-08-01T09:03:16;11.52;;;3.65;;
61096;SDS011;46977;50.936;6.908;2023-08-01T09:06:20;8.90;;;3.42;;
61096;SDS011;46977;50.936;6.908;2023-08-01T09:09:26;6.40;;;2.80;;
61096;SDS011;46977;50.936;6.908;2023-08-01T09:12:31;10.30;;;3.30;;
61096;SDS011;46977;50.936;6.908;2023-08-01T09:15:36;8.90;;;2.95;;
61096;SDS011;46977;50.936;6.908;2023-08-01T09:18:48;9.93;;;4.10;;
61096;SDS011;46977;50.936;6.908;2023-08-01T09:21:54;7.75;;;3.00;;
61096;SDS011;46977;50.936;6.908;2023-08-01T09:24:58;11.02;;;3.47;;
61096;SDS011;46977;50.936;6.908;2023-08-01T09:28:15;9.45;;;3.60;;
61096;SDS011;46977;50.936;6.908;2023-08-01T09:31:28;11.77;;;3.40;;
61096;SDS011;46977;50.936;6.908;2023-08-01T09:34:38;9.25;;;3.72;;
61096;SDS011;46977;50.936;6.908;2023-08-01T09:37:46;7.75;;;2.70;;
61096;SDS011;46977;50.936;6.908;2023-08-01T09:40:49;11.48;;;3.63;;
61096;SDS011;46977;50.936;6.908;2023-08-01T09:43:52;6.13;;;2.95;;
61096;SDS011;46977;50.936;6.908;2023-08-01T09:46:55;10.85;;;3.97;;
61096;SDS011;46977;50.936;6.908;2023-08-01T09:49:58;10.10;;;3.35;;
61096;SDS011;46977;50.936;6.908;2023-08-01T09:53:10;10.30;;;3.50;;
61096;SDS011;46977;50.936;6.908;2023-08-01T09:56:13;10.98;;;4.05;;
61096;SDS011;46977;50.936;6.908;2023-08-01T09:59:19;8.00;;;2.80;;
61096;SDS011;46977;50.936;6.908;2023-08-01T10:02:23;14.30;;;3.95;;
61096;SDS011;46977;50.936;6.908;2023-08-01T10:05:29;8.88;;;3.28;;
61096;SDS011;46977;50.936;6.908;2023-08-01T10:08:34;8.38;;;3.60;;
61096;SDS011;46977;50.936;6.908;2023-08-01T10:11:37;10.68;;;3.85;;
61096;SDS011;46977;50.936;6.908;2023-08-01T10:14:40;10.52;;;3.83;;
61096;SDS011;46977;50.936;6.908;2023-08-01T10:17:43;12.80;;;3.58;;
61096;SDS011;46977;50.936;6.908;2023-08-01T10:20:46;10.18;;;3.83;;
61096;SDS011;46977;50.936;6.908;2023-08-01T10:23:50;10.05;;;4.25;;
61096;SDS011;46977;50.936;6.908;2023-08-01T10:26:53;10.05;;;4.03;;
61096;SDS011;46977;50.936;6.908;2023-08-01T10:29:58;8.25;;;3.72;;
61096;SDS011;46977;50.936;6.908;2023-08-01T10:33:01;10.65;;;3.72;;
61096;SDS011;46977;50.936;6.908;2023-08-01T10:36:14;11.45;;;4.15;;
61096;SDS011;46977;50.936;6.908;2023-08-01T10:39:22;16.10;;;4.10;;
61096;SDS011;46977;50.936;6.908;2023-08-01T10:42:25;13.13;;;4.30;;
61096;SDS011;46977;50.936;6.908;2023-08-01T10:45:27;11.15;;;4.13;;
61096;SDS011;46977;50.936;6.908;2023-08-01T10:48:31;11.05;;;3.63;;
61096;SDS011;46977;50.936;6.908;2023-08-01T10:51:36;8.52;;;3.42;;
61096;SDS011;46977;50.936;6.908;2023-08-01T10:54:40;9.13;;;3.13;;
61096;SDS011;46977;50.936;6.908;2023-08-01T10:57:46;9.40;;;3.13;;
61096;SDS011;46977;50.936;6.908;2023-08-01T11:00:56;8.15;;;2.90;;
61096;SDS011;46977;50.936;6.908;2023-08-01T11:03:59;9.48;;;3.35;;
61096;SDS011;46977;50.936;6.908;2023-08-01T11:07:03;10.45;;;3.15;;
61096;SDS011;46977;50.936;6.908;2023-08-01T11:10:08;13.25;;;3.78;;
61096;SDS011;46977;50.936;6.908;2023-08-01T11:13:12;10.68;;;3.35;;
61096;SDS011;46977;50.936;6.908;2023-08-01T11:16:14;13.75;;;3.92;;
61096;SDS011;46977;50.936;6.908;2023-08-01T11:19:17;10.07;;;3.80;;
61096;SDS011;46977;50.936;6.908;2023-08-01T11:22:20;10.35;;;4.00;;
61096;SDS011;46977;50.936;6.908;2023-08-01T11:25:34;12.23;;;3.42;;
61096;SDS011;46977;50.936;6.908;2023-08-01T11:28:37;10.40;;;2.97;;
61096;SDS011;46977;50.936;6.908;2023-08-01T11:31:39;9.77;;;3.35;;
61096;SDS011;46977;50.936;6.908;2023-08-01T11:34:43;8.35;;;3.13;;
61096;SDS011;46977;50.936;6.908;2023-08-01T11:37:51;11.77;;;3.83;;
61096;SDS011;46977;50.936;6.908;2023-08-01T11:40:55;9.27;;;3.55;;
61096;SDS011;46977;50.936;6.908;2023-08-01T11:44:01;9.15;;;3.03;;
61096;SDS011;46977;50.936;6.908;2023-08-01T11:47:09;19.00;;;3.40;;
61096;SDS011;46977;50.936;6.908;2023-08-01T11:50:13;11.95;;;3.47;;
61096;SDS011;46977;50.936;6.908;2023-08-01T11:53:19;12.07;;;2.97;;
61096;SDS011;46977;50.936;6.908;2023-08-01T11:56:23;12.27;;;3.80;;
61096;SDS011;46977;50.936;6.908;2023-08-01T11:59:25;12.52;;;3.42;;
61096;SDS011;46977;50.936;6.908;2023-08-01T12:02:28;14.68;;;3.38;;
61096;SDS011;46977;50.936;6.908;2023-08-01T12:05:37;14.68;;;3.75;;
61096;SDS011;46977;50.936;6.908;2023-08-01T12:08:40;13.30;;;4.53;;
61096;SDS011;46977;50.936;6.908;2023-08-01T12:11:44;12.10;;;3.47;;
61096;SDS011;46977;50.936;6.908;2023-08-01T12:14:47;17.63;;;4.10;;
61096;SDS011;46977;50.936;6.908;2023-08-01T12:17:50;13.60;;;3.42;;
61096;SDS011;46977;50.936;6.908;2023-08-01T12:20:52;15.00;;;3.50;;
61096;SDS011;46977;50.936;6.908;2023-08-01T12:23:55;10.80;;;3.45;;
61096;SDS011;46977;50.936;6.908;2023-08-01T12:26:59;9.07;;;2.97;;
61096;SDS011;46977;50.936;6.908;2023-08-01T12:30:01;12.25;;;3.40;;
61096;SDS011;46977;50.936;6.908;2023-08-01T12:33:03;17.15;;;3.22;;
61096;SDS011;46977;50.936;6.908;2023-08-01T12:36:08;15.85;;;3.55;;
61096;SDS011;46977;50.936;6.908;2023-08-01T12:39:11;17.63;;;3.72;;
61096;SDS011;46977;50.936;6.908;2023-08-01T12:42:14;16.38;;;3.85;;
61096;SDS011;46977;50.936;6.908;2023-08-01T12:45:17;16.13;;;4.38;;
61096;SDS011;46977;50.936;6.908;2023-08-01T12:48:19;14.57;;;4.35;;
61096;SDS011;46977;50.936;6.908;2023-08-01T12:51:21;14.95;;;4.28;;
61096;SDS011;46977;50.936;6.908;2023-08-01T12:54:23;11.60;;;3.15;;
61096;SDS011;46977;50.936;6.908;2023-08-01T12:57:27;13.43;;;3.50;;
61096;SDS011;46977;50.936;6.908;2023-08-01T13:00:32;9.75;;;3.72;;
61096;SDS011;46977;50.936;6.908;2023-08-01T13:03:34;13.13;;;4.07;;
61096;SDS011;46977;50.936;6.908;2023-08-01T13:06:39;20.95;;;3.35;;
61096;SDS011;46977;50.936;6.908;2023-08-01T13:09:42;16.08;;;3.17;;
61096;SDS011;46977;50.936;6.908;2023-08-01T13:12:46;12.27;;;3.92;;
61096;SDS011;46977;50.936;6.908;2023-08-01T13:15:48;21.67;;;3.65;;
61096;SDS011;46977;50.936;6.908;2023-08-01T13:18:50;14.27;;;2.92;;
61096;SDS011;46977;50.936;6.908;2023-08-01T13:21:53;12.73;;;3.50;;
61096;SDS011;46977;50.936;6.908;2023-08-01T13:24:55;8.20;;;3.00;;
61096;SDS011;46977;50.936;6.908;2023-08-01T13:27:59;12.35;;;3.38;;
61096;SDS011;46977;50.936;6.908;2023-08-01T13:31:01;9.07;;;2.88;;
61096;SDS011;46977;50.936;6.908;2023-08-01T13:34:04;12.73;;;3.40;;
61096;SDS011;46977;50.936;6.908;2023-08-01T13:37:07;8.27;;;3.10;;
61096;SDS011;46977;50.936;6.908;2023-08-01T13:40:11;8.73;;;2.78;;
61096;SDS011;46977;50.936;6.908;2023-08-01T13:43:19;12.15;;;3.10;;
61096;SDS011;46977;50.936;6.908;2023-08-01T13:47:02;9.25;;;3.08;;
61096;SDS011;46977;50.936;6.908;2023-08-01T13:50:11;10.57;;;2.70;;
61096;SDS011;46977;50.936;6.908;2023-08-01T13:58:35;9.50;;;2.88;;
61096;SDS011;46977;50.936;6.908;2023-08-01T14:01:39;40.90;;;9.13;;
61096;SDS011;46977;50.936;6.908;2023-08-01T14:04:42;16.27;;;5.20;;
61096;SDS011;46977;50.936;6.908;2023-08-01T14:07:44;16.20;;;5.07;;
61096;SDS011;46977;50.936;6.908;2023-08-01T14:10:51;11.07;;;3.50;;
61096;SDS011;46977;50.936;6.908;2023-08-01T14:13:58;21.58;;;7.30;;
61096;SDS011;46977;50.936;6.908;2023-08-01T14:17:00;18.23;;;6.15;;
61096;SDS011;46977;50.936;6.908;2023-08-01T14:20:03;10.73;;;4.22;;
61096;SDS011;46977;50.936;6.908;2023-08-01T14:23:06;16.65;;;4.35;;
61096;SDS011;46977;50.936;6.908;2023-08-01T14:26:10;9.40;;;3.65;;
61096;SDS011;46977;50.936;6.908;2023-08-01T14:29:14;14.77;;;4.60;;
61096;SDS011;46977;50.936;6.908;2023-08-01T14:32:17;11.30;;;4.32;;
61096;SDS011;46977;50.936;6.908;2023-08-01T14:35:20;13.45;;;4.10;;
61096;SDS011;46977;50.936;6.908;2023-08-01T14:38:22;10.35;;;3.65;;
61096;SDS011;46977;50.936;6.908;2023-08-01T14:41:25;8.68;;;3.92;;
61096;SDS011;46977;50.936;6.908;2023-08-01T14:44:52;12.15;;;4.60;;
61096;SDS011;46977;50.936;6.908;2023-08-01T14:47:56;10.63;;;3.72;;
61096;SDS011;46977;50.936;6.908;2023-08-01T14:50:58;7.38;;;3.60;;
61096;SDS011;46977;50.936;6.908;2023-08-01T14:54:00;9.93;;;3.78;;
61096;SDS011;46977;50.936;6.908;2023-08-01T14:57:03;19.73;;;3.72;;
61096;SDS011;46977;50.936;6.908;2023-08-01T15:00:07;14.48;;;3.83;;
61096;SDS011;46977;50.936;6.908;2023-08-01T15:03:12;10.15;;;3.30;;
61096;SDS011;46977;50.936;6.908;2023-08-01T15:06:16;7.60;;;2.90;;
61096;SDS011;46977;50.936;6.908;2023-08-01T15:09:18;10.07;;;2.83;;
61096;SDS011;46977;50.936;6.908;2023-08-01T15:12:21;9.23;;;3.08;;
61096;SDS011;46977;50.936;6.908;2023-08-01T15:15:29;7.30;;;2.67;;
61096;SDS011;46977;50.936;6.908;2023-08-01T15:18:37;16.15;;;3.60;;
61096;SDS011;46977;50.936;6.908;2023-08-01T15:21:44;11.88;;;2.95;;
61096;SDS011;46977;50.936;6.908;2023-08-01T15:24:55;11.32;;;3.13;;
61096;SDS011;46977;50.936;6.908;2023-08-01T15:27:59;11.20;;;4.30;;
61096;SDS011;46977;50.936;6.908;2023-08-01T15:31:19;12.63;;;3.67;;
61096;SDS011;46977;50.936;6.908;2023-08-01T15:45:22;12.27;;;3.38;;
61096;SDS011;46977;50.936;6.908;2023-08-01T15:49:44;6.47;;;1.70;;
61096;SDS011;46977;50.936;6.908;2023-08-01T15:53:14;6.68;;;2.60;;
61096;SDS011;46977;50.936;6.908;2023-08-01T15:56:17;9.75;;;2.50;;
61096;SDS011;46977;50.936;6.908;2023-08-01T15:59:19;8.35;;;2.10;;
61096;SDS011;46977;50.936;6.908;2023-08-01T16:02:22;8.73;;;1.90;;
61096;SDS011;46977;50.936;6.908;2023-08-01T16:05:26;6.55;;;2.78;;
61096;SDS011;46977;50.936;6.908;2023-08-01T16:08:28;13.38;;;2.15;;
61096;SDS011;46977;50.936;6.908;2023-08-01T16:11:31;7.18;;;1.70;;
61096;SDS011;46977;50.936;6.908;2023-08-01T16:14:33;6.65;;;1.88;;
61096;SDS011;46977;50.936;6.908;2023-08-01T16:17:42;6.13;;;1.42;;
61096;SDS011;46977;50.936;6.908;2023-08-01T16:20:48;3.63;;;1.35;;
61096;SDS011;46977;50.936;6.908;2023-08-01T16:23:53;5.78;;;1.38;;
61096;SDS011;46977;50.936;6.908;2023-08-01T16:26:55;8.63;;;1.60;;
61096;SDS011;46977;50.936;6.908;2023-08-01T16:30:02;7.00;;;1.77;;
61096;SDS011;46977;50.936;6.908;2023-08-01T16:33:06;7.00;;;1.63;;
61096;SDS011;46977;50.936;6.908;2023-08-01T16:36:10;4.55;;;1.63;;
61096;SDS011;46977;50.936;6.908;2023-08-01T16:39:16;7.22;;;1.65;;
61096;SDS011;46977;50.936;6.908;2023-08-01T16:57:43;7.22;;;1.80;;
61096;SDS011;46977;50.936;6.908;2023-08-01T17:34:45;9.02;;;1.90;;
61096;SDS011;46977;50.936;6.908;2023-08-01T18:24:10;6.43;;;1.30;;
61096;SDS011;46977;50.936;6.908;2023-08-01T18:27:27;4.97;;;1.40;;
61096;SDS011;46977;50.936;6.908;2023-08-01T18:30:43;8.80;;;2.00;;
61096;SDS011;46977;50.936;6.908;2023-08-01T18:33:52;5.75;;;1.92;;
61096;SDS011;46977;50.936;6.908;2023-08-01T18:37:05;5.40;;;1.35;;
61096;SDS011;46977;50.936;6.908;2023-08-01T18:40:12;6.55;;;2.40;;
61096;SDS011;46977;50.936;6.908;2023-08-01T18:43:39;11.02;;;2.30;;
61096;SDS011;46977;50.936;6.908;2023-08-01T18:46:54;8.40;;;1.80;;
61096;SDS011;46977;50.936;6.908;2023-08-01T19:13:32;9.30;;;2.25;;
61096;SDS011;46977;50.936;6.908;2023-08-01T19:23:56;10.98;;;2.20;;
61096;SDS011;46977;50.936;6.908;2023-08-01T19:27:21;5.90;;;1.92;;
61096;SDS011;46977;50.936;6.908;2023-08-01T19:30:52;5.93;;;2.38;;
61096;SDS011;46977;50.936;6.908;2023-08-01T19:34:18;7.30;;;1.67;;
61096;SDS011;46977;50.936;6.908;2023-08-01T19:38:02;7.00;;;1.63;;
61096;SDS011;46977;50.936;6.908;2023-08-01T19:41:16;5.50;;;1.75;;
61096;SDS011;46977;50.936;6.908;2023-08-01T19:44:20;7.18;;;1.90;;
61096;SDS011;46977;50.936;6.908;2023-08-01T19:56:29;5.97;;;1.95;;
61096;SDS011;46977;50.936;6.908;2023-08-01T20:07:49;9.32;;;2.28;;
61096;SDS011;46977;50.936;6.908;2023-08-01T20:10:54;9.43;;;1.83;;
61096;SDS011;46977;50.936;6.908;2023-08-01T20:14:17;10.55;;;2.42;;
61096;SDS011;46977;50.936;6.908;2023-08-01T20:17:28;11.95;;;2.38;;
61096;SDS011;46977;50.936;6.908;2023-08-01T20:24:38;7.97;;;1.75;;
61096;SDS011;46977;50.936;6.908;2023-08-01T20:27:45;12.48;;;2.70;;
61096;SDS011;46977;50.936;6.908;2023-08-01T20:30:49;9.05;;;2.50;;
61096;SDS011;46977;50.936;6.908;2023-08-01T20:33:54;10.57;;;2.85;;
61096;SDS011;46977;50.936;6.908;2023-08-01T20:36:57;6.85;;;2.75;;
61096;SDS011;46977;50.936;6.908;2023-08-01T20:39:59;11.52;;;2.58;;
61096;SDS011;46977;50.936;6.908;2023-08-01T20:43:02;7.18;;;2.45;;
61096;SDS011;46977;50.936;6.908;2023-08-01T20:46:06;8.40;;;3.17;;
61096;SDS011;46977;50.936;6.908;2023-08-01T20:49:11;11.40;;;3.30;;
61096;SDS011;46977;50.936;6.908;2023-08-01T20:52:14;14.43;;;3.67;;
61096;SDS011;46977;50.936;6.908;2023-08-01T20:55:16;14.02;;;4.32;;
61096;SDS011;46977;50.936;6.908;2023-08-01T20:58:19;12.20;;;3.97;;
61096;SDS011;46977;50.936;6.908;2023-08-01T21:01:23;6.85;;;2.10;;
61096;SDS011;46977;50.936;6.908;2023-08-01T21:04:25;10.82;;;2.53;;
61096;SDS011;46977;50.936;6.908;2023-08-01T21:07:28;12.48;;;4.25;;
61096;SDS011;46977;50.936;6.908;2023-08-01T21:10:30;14.20;;;2.70;;
61096;SDS011;46977;50.936;6.908;2023-08-01T21:13:32;5.47;;;2.33;;
61096;SDS011;46977;50.936;6.908;2023-08-01T21:16:36;10.77;;;2.50;;
61096;SDS011;46977;50.936;6.908;2023-08-01T21:19:38;10.07;;;3.75;;
61096;SDS011;46977;50.936;6.908;2023-08-01T21:22:41;19.17;;;4.30;;
61096;SDS011;46977;50.936;6.908;2023-08-01T21:25:43;9.85;;;3.00;;
61096;SDS011;46977;50.936;6.908;2023-08-01T21:28:45;11.35;;;2.83;;
61096;SDS011;46977;50.936;6.908;2023-08-01T21:31:49;11.38;;;2.63;;
61096;SDS011;46977;50.936;6.908;2023-08-01T21:34:51;6.95;;;2.22;;
61096;SDS011;46977;50.936;6.908;2023-08-01T21:37:56;12.25;;;3.58;;
61096;SDS011;46977;50.936;6.908;2023-08-01T21:40:59;9.30;;;2.78;;
61096;SDS011;46977;50.936;6.908;2023-08-01T21:44:01;6.20;;;2.40;;
61096;SDS011;46977;50.936;6.908;2023-08-01T21:47:05;10.98;;;2.88;;
61096;SDS011;46977;50.936;6.908;2023-08-01T21:50:09;7.55;;;2.60;;
61096;SDS011;46977;50.936;6.908;2023-08-01T21:53:11;8.23;;;2.20;;
61096;SDS011;46977;50.936;6.908;2023-08-01T21:56:13;17.95;;;3.65;;
61096;SDS011;46977;50.936;6.908;2023-08-01T21:59:16;9.35;;;2.80;;
61096;SDS011;46977;50.936;6.908;2023-08-01T22:02:20;12.35;;;3.63;;
61096;SDS011;46977;50.936;6.908;2023-08-01T22:05:22;16.83;;;5.30;;
61096;SDS011;46977;50.936;6.908;2023-08-01T22:08:25;11.27;;;4.07;;
61096;SDS011;46977;50.936;6.908;2023-08-01T22:11:27;24.35;;;7.18;;
61096;SDS011;46977;50.936;6.908;2023-08-01T22:14:29;10.90;;;2.78;;
61096;SDS011;46977;50.936;6.908;2023-08-01T22:17:33;13.70;;;3.33;;
61096;SDS011;46977;50.936;6.908;2023-08-01T22:20:39;10.18;;;3.10;;
61096;SDS011;46977;50.936;6.908;2023-08-01T22:23:42;8.15;;;2.30;;
61096;SDS011;46977;50.936;6.908;2023-08-01T22:26:45;9.05;;;2.28;;
61096;SDS011;46977;50.936;6.908;2023-08-01T22:29:47;9.65;;;2.30;;
61096;SDS011;46977;50.936;6.908;2023-08-01T22:32:51;11.20;;;2.88;;
61096;SDS011;46977;50.936;6.908;2023-08-01T22:35:53;6.53;;;2.08;;
61096;SDS011;46977;50.936;6.908;2023-08-01T22:38:55;5.85;;;1.90;;
61096;SDS011;46977;50.936;6.908;2023-08-01T22:41:58;7.35;;;2.13;;
61096;SDS011;46977;50.936;6.908;2023-08-01T22:45:00;8.15;;;2.08;;
61096;SDS011;46977;50.936;6.908;2023-08-01T22:48:04;7.97;;;2.35;;
61096;SDS011;46977;50.936;6.908;2023-08-01T22:51:11;6.30;;;1.70;;
61096;SDS011;46977;50.936;6.908;2023-08-01T22:54:14;8.13;;;1.92;;
61096;SDS011;46977;50.936;6.908;2023-08-01T22:57:17;7.45;;;1.90;;
61096;SDS011;46977;50.936;6.908;2023-08-01T23:00:19;7.15;;;1.70;;
61096;SDS011;46977;50.936;6.908;2023-08-01T23:03:23;6.07;;;1.30;;
61096;SDS011;46977;50.936;6.908;2023-08-01T23:06:27;8.73;;;1.80;;
61096;SDS011;46977;50.936;6.908;2023-08-01T23:09:31;5.50;;;1.30;;
61096;SDS011;46977;50.936;6.908;2023-08-01T23:12:34;8.40;;;2.10;;
61096;SDS011;46977;50.936;6.908;2023-08-01T23:15:36;7.53;;;1.20;;
61096;SDS011;46977;50.936;6.908;2023-08-01T23:18:40;7.07;;;1.20;;
61096;SDS011;46977;50.936;6.908;2023-08-01T23:21:42;5.55;;;1.42;;
61096;SDS011;46977;50.936;6.908;2023-08-01T23:24:45;6.10;;;1.63;;